createdAt,value
2017-09-08T00:00:33.221Z,18.69
2017-09-08T00:03:04.889Z,18.68
2017-09-08T00:05:36.041Z,18.69
2017-09-08T00:08:08.300Z,18.58
2017-09-08T00:10:45.882Z,18.47
2017-09-08T00:13:17.103Z,18.38
2017-09-08T00:15:48.318Z,18.30
2017-09-08T00:18:22.286Z,18.22
2017-09-08T00:20:53.416Z,18.14
2017-09-08T00:23:24.625Z,18.07
2017-09-08T00:25:56.133Z,18.00
2017-09-08T00:28:27.257Z,17.94
2017-09-08T00:30:58.368Z,17.89
2017-09-08T00:33:29.920Z,17.85
2017-09-08T00:36:02.019Z,17.77
2017-09-08T00:38:33.188Z,17.70
2017-09-08T00:41:04.484Z,17.64
2017-09-08T00:43:35.649Z,17.57
2017-09-08T00:46:06.907Z,17.54
2017-09-08T00:48:39.570Z,17.50
2017-09-08T00:51:10.763Z,17.48
2017-09-08T00:53:42.182Z,17.47
2017-09-08T00:56:15.896Z,17.44
2017-09-08T00:58:47.450Z,17.43
2017-09-08T01:01:18.658Z,17.38
2017-09-08T01:03:51.567Z,17.35
2017-09-08T01:06:23.633Z,17.32
2017-09-08T01:08:54.804Z,17.29
2017-09-08T01:11:25.994Z,17.23
2017-09-08T01:13:57.160Z,17.20
2017-09-08T01:16:28.299Z,17.16
2017-09-08T01:18:59.778Z,17.13
2017-09-08T01:21:31.605Z,17.09
2017-09-08T01:24:04.381Z,17.11
2017-09-08T01:26:47.714Z,17.16
2017-09-08T01:29:21.846Z,17.21
2017-09-08T01:32:01.149Z,17.22
2017-09-08T01:34:39.483Z,17.24
2017-09-08T01:37:14.562Z,17.26
2017-09-08T01:39:46.446Z,17.27
2017-09-08T01:42:18.766Z,17.28
2017-09-08T01:44:50.296Z,17.27
2017-09-08T01:47:21.778Z,17.22
2017-09-08T01:49:52.896Z,17.16
2017-09-08T01:52:24.107Z,17.08
2017-09-08T01:54:59.918Z,16.98
2017-09-08T01:57:31.090Z,16.90
2017-09-08T02:00:02.798Z,16.89
2017-09-08T02:02:33.972Z,16.85
2017-09-08T02:05:08.782Z,16.86
2017-09-08T02:07:39.958Z,16.82
2017-09-08T02:10:12.233Z,16.86
2017-09-08T02:12:43.414Z,16.89
2017-09-08T02:15:14.573Z,16.87
2017-09-08T02:17:45.908Z,16.81
2017-09-08T02:20:17.814Z,16.69
2017-09-08T02:22:50.015Z,16.57
2017-09-08T02:25:21.425Z,16.55
2017-09-08T02:27:53.048Z,16.54
2017-09-08T02:30:24.321Z,16.47
2017-09-08T02:32:55.484Z,16.44
2017-09-08T02:35:27.032Z,16.42
2017-09-08T02:37:58.222Z,16.40
2017-09-08T02:40:29.405Z,16.37
2017-09-08T02:43:00.580Z,16.32
2017-09-08T02:45:31.758Z,16.29
2017-09-08T02:48:11.612Z,16.26
2017-09-08T02:50:46.870Z,16.20
2017-09-08T02:53:18.145Z,16.16
2017-09-08T02:55:51.457Z,16.16
2017-09-08T02:58:22.672Z,16.11
2017-09-08T03:00:54.214Z,16.09
2017-09-08T03:03:42.239Z,16.09
2017-09-08T03:06:15.509Z,16.04
2017-09-08T03:08:47.523Z,16.01
2017-09-08T03:11:19.994Z,15.96
2017-09-08T03:13:51.928Z,15.96
2017-09-08T03:16:23.556Z,15.91
2017-09-08T03:18:57.236Z,15.88
2017-09-08T03:21:28.421Z,15.84
2017-09-08T03:23:59.648Z,15.80
2017-09-08T03:26:32.655Z,15.75
2017-09-08T03:29:04.053Z,15.76
2017-09-08T03:31:35.196Z,15.66
2017-09-08T03:34:07.016Z,15.62
2017-09-08T03:36:38.220Z,15.53
2017-09-08T03:39:09.403Z,15.53
2017-09-08T03:41:40.615Z,15.49
2017-09-08T03:44:12.612Z,15.49
2017-09-08T03:46:43.923Z,15.46
2017-09-08T03:49:15.172Z,15.47
2017-09-08T03:51:46.904Z,15.42
2017-09-08T03:54:18.229Z,15.42
2017-09-08T03:56:49.793Z,15.44
2017-09-08T03:59:21.073Z,15.44
2017-09-08T04:01:54.018Z,15.50
2017-09-08T04:04:25.272Z,15.53
2017-09-08T04:06:56.677Z,15.56
2017-09-08T04:09:27.917Z,15.64
2017-09-08T04:11:59.139Z,15.70
2017-09-08T04:14:30.488Z,15.76
2017-09-08T04:17:01.700Z,15.77
2017-09-08T04:19:34.253Z,15.78
2017-09-08T04:22:05.823Z,15.80
2017-09-08T04:24:37.101Z,15.79
2017-09-08T04:27:08.723Z,15.80
2017-09-08T04:29:40.009Z,15.75
2017-09-08T04:32:11.401Z,15.79
2017-09-08T04:34:44.893Z,15.78
2017-09-08T04:37:16.049Z,15.82
2017-09-08T04:39:47.295Z,15.82
2017-09-08T04:42:18.678Z,15.84
2017-09-08T04:44:50.295Z,15.83
2017-09-08T04:47:21.854Z,15.83
2017-09-08T04:49:53.497Z,15.77
2017-09-08T04:52:24.830Z,15.76
2017-09-08T04:54:56.268Z,15.79
2017-09-08T04:57:27.551Z,15.82
2017-09-08T04:59:59.338Z,15.75
2017-09-08T05:02:30.934Z,15.65
2017-09-08T05:05:02.613Z,15.59
2017-09-08T05:07:33.823Z,15.56
2017-09-08T05:10:06.074Z,15.55
2017-09-08T05:12:37.375Z,15.63
2017-09-08T05:15:08.713Z,15.71
2017-09-08T05:17:39.941Z,15.61
2017-09-08T05:20:12.195Z,15.60
2017-09-08T05:22:43.564Z,15.63
2017-09-08T05:25:14.833Z,15.67
2017-09-08T05:27:47.020Z,15.70
2017-09-08T05:30:19.196Z,15.76
2017-09-08T05:32:50.867Z,15.79
2017-09-08T05:35:26.116Z,15.81
2017-09-08T05:37:57.274Z,15.83
2017-09-08T05:45:05.765Z,15.89
2017-09-08T05:47:37.082Z,15.89
2017-09-08T05:50:08.885Z,15.97
2017-09-08T05:52:40.429Z,16.01
2017-09-08T05:55:11.714Z,16.03
2017-09-08T05:57:43.024Z,16.12
2017-09-08T06:00:14.534Z,16.11
2017-09-08T06:02:46.102Z,16.14
2017-09-08T06:05:17.706Z,16.13
2017-09-08T06:07:49.757Z,16.17
2017-09-08T06:10:21.237Z,16.26
2017-09-08T06:12:52.664Z,16.28
2017-09-08T06:20:05.393Z,16.26
2017-09-08T06:22:36.688Z,16.13
2017-09-08T06:25:08.322Z,16.15
2017-09-08T06:27:45.662Z,16.17
2017-09-08T06:30:17.336Z,16.20
2017-09-08T06:32:49.234Z,16.28
2017-09-08T06:35:22.015Z,16.30
2017-09-08T06:57:33.005Z,16.86
2017-09-08T07:05:55.036Z,17.20
2017-09-08T07:08:26.222Z,17.18
2017-09-08T07:10:58.029Z,17.25
2017-09-08T07:13:29.977Z,17.21
2017-09-08T07:16:01.946Z,17.41
2017-09-08T07:18:33.613Z,17.52
2017-09-08T07:21:05.122Z,17.58
2017-09-08T07:23:36.903Z,17.66
2017-09-08T07:26:08.402Z,17.86
2017-09-08T07:28:39.584Z,18.02
2017-09-08T07:31:11.214Z,18.16
2017-09-08T07:33:42.337Z,18.47
2017-09-08T07:36:16.149Z,18.45
2017-09-08T07:38:47.877Z,18.62
2017-09-08T07:41:19.048Z,18.45
2017-09-08T07:43:50.350Z,18.39
2017-09-08T07:46:21.962Z,18.38
2017-09-08T07:48:53.354Z,18.26
2017-09-08T07:51:25.286Z,18.26
2017-09-08T07:53:56.773Z,18.12
2017-09-08T07:56:28.106Z,17.95
2017-09-08T07:58:59.515Z,18.09
2017-09-08T08:01:32.247Z,18.14
2017-09-08T08:04:04.748Z,18.09
2017-09-08T08:06:36.232Z,18.16
2017-09-08T08:09:07.506Z,18.10
2017-09-08T08:11:38.716Z,17.90
2017-09-08T08:14:11.442Z,17.82
2017-09-08T08:16:44.086Z,17.76
2017-09-08T08:19:15.368Z,17.75
2017-09-08T08:21:46.831Z,17.76
2017-09-08T08:24:18.191Z,17.79
2017-09-08T08:30:17.349Z,17.88
2017-09-08T08:33:13.696Z,17.88
2017-09-08T08:35:45.357Z,17.96
2017-09-08T08:38:25.019Z,17.96
2017-09-08T08:40:58.818Z,17.83
2017-09-08T08:43:32.823Z,17.98
2017-09-08T08:46:05.340Z,18.14
2017-09-08T08:48:36.653Z,18.17
2017-09-08T08:51:07.782Z,18.24
2017-09-08T08:53:39.176Z,18.31
2017-09-08T08:56:11.523Z,18.33
2017-09-08T08:58:43.435Z,18.27
2017-09-08T09:01:14.812Z,18.11
2017-09-08T09:03:47.539Z,18.21
2017-09-08T09:06:18.785Z,18.14
2017-09-08T09:08:50.324Z,18.16
2017-09-08T09:11:21.451Z,18.29
2017-09-08T09:13:54.708Z,18.50
2017-09-08T09:16:26.186Z,18.65
2017-09-08T09:18:57.487Z,18.73
2017-09-08T09:21:31.746Z,18.69
2017-09-08T09:24:05.068Z,18.68
2017-09-08T09:26:36.746Z,18.68
2017-09-08T09:32:10.741Z,18.93
2017-09-08T09:34:42.714Z,18.85
2017-09-08T09:37:15.459Z,18.76
2017-09-08T09:39:47.502Z,18.73
2017-09-08T09:42:20.534Z,18.97
2017-09-08T09:44:52.771Z,19.12
2017-09-08T09:47:23.916Z,19.17
2017-09-08T09:49:55.063Z,19.09
2017-09-08T09:52:35.539Z,18.92
2017-09-08T09:55:07.010Z,18.88
2017-09-08T09:57:38.525Z,18.75
2017-09-08T10:00:11.340Z,18.65
2017-09-08T10:02:42.642Z,18.68
2017-09-08T10:05:14.140Z,18.76
2017-09-08T10:07:46.254Z,18.68
2017-09-08T10:10:19.210Z,18.78
2017-09-08T10:15:56.383Z,19.15
2017-09-08T10:18:27.858Z,19.19
2017-09-08T10:21:00.311Z,19.23
2017-09-08T10:23:31.887Z,19.43
2017-09-08T10:26:05.684Z,19.77
2017-09-08T10:28:36.907Z,20.10
2017-09-08T10:31:08.251Z,20.27
2017-09-08T10:33:39.563Z,20.32
2017-09-08T10:36:13.613Z,20.58
2017-09-08T10:38:46.098Z,20.77
2017-09-08T10:41:17.417Z,21.01
2017-09-08T10:43:50.968Z,21.00
2017-09-08T10:46:22.901Z,21.31
2017-09-08T10:48:54.186Z,21.52
2017-09-08T10:51:25.658Z,21.67
2017-09-08T10:53:56.781Z,21.68
2017-09-08T10:56:27.958Z,21.70
2017-09-08T10:59:02.187Z,21.73
2017-09-08T11:01:33.396Z,22.10
2017-09-08T11:04:05.121Z,22.57
2017-09-08T11:06:36.610Z,22.82
2017-09-08T11:09:07.897Z,22.75
2017-09-08T11:11:39.382Z,22.82
2017-09-08T11:14:11.265Z,22.88
2017-09-08T11:16:42.548Z,22.70
2017-09-08T11:19:15.798Z,22.34
2017-09-08T11:21:49.423Z,22.20
2017-09-08T11:24:21.730Z,22.06
2017-09-08T11:26:53.001Z,22.04
2017-09-08T11:29:24.595Z,21.83
2017-09-08T11:31:55.862Z,22.13
2017-09-08T11:36:34.035Z,21.78
2017-09-08T11:39:07.359Z,21.81
2017-09-08T11:41:39.051Z,22.12
2017-09-08T11:44:17.618Z,22.47
2017-09-08T11:46:50.281Z,22.38
2017-09-08T11:49:21.819Z,23.07
2017-09-08T11:51:58.089Z,23.16
2017-09-08T11:54:30.647Z,23.26
2017-09-08T11:57:03.560Z,23.53
2017-09-08T11:59:37.407Z,23.56
2017-09-08T12:02:11.307Z,23.50
2017-09-08T12:04:42.589Z,23.04
2017-09-08T12:07:15.381Z,22.96
2017-09-08T12:09:47.744Z,23.05
2017-09-08T12:12:21.400Z,22.64
2017-09-08T12:14:54.089Z,22.81
2017-09-08T12:17:26.565Z,22.77
2017-09-08T12:19:58.069Z,22.77
2017-09-08T12:22:30.909Z,22.76
2017-09-08T12:25:03.522Z,22.82
2017-09-08T12:27:35.969Z,22.65
2017-09-08T12:30:10.863Z,22.54
2017-09-08T12:32:42.526Z,22.23
2017-09-08T12:35:16.351Z,22.14
2017-09-08T12:37:53.937Z,22.24
2017-09-08T12:40:29.382Z,22.68
2017-09-08T12:43:01.533Z,23.03
2017-09-08T12:45:33.779Z,23.69
2017-09-08T12:48:07.207Z,24.84
2017-09-08T12:50:40.318Z,25.76
2017-09-08T12:53:12.738Z,25.72
2017-09-08T12:55:44.168Z,26.11
2017-09-08T12:58:16.472Z,27.21
2017-09-08T13:00:49.029Z,28.05
2017-09-08T13:03:24.158Z,28.63
2017-09-08T13:06:09.366Z,31.11
2017-09-08T13:08:43.142Z,32.23
2017-09-08T13:11:23.267Z,32.55
2017-09-08T13:13:56.115Z,30.97
2017-09-08T13:17:02.785Z,29.14
2017-09-08T13:19:34.391Z,27.63
2017-09-08T13:22:05.941Z,27.06
2017-09-08T13:24:37.675Z,25.96
2017-09-08T13:27:09.022Z,25.47
2017-09-08T13:29:40.422Z,25.08
2017-09-08T13:32:18.706Z,24.76
2017-09-08T13:34:51.222Z,24.73
2017-09-08T13:37:22.677Z,24.82
2017-09-08T13:39:54.723Z,25.31
2017-09-08T13:42:28.472Z,26.47
2017-09-08T13:44:59.608Z,27.61
2017-09-08T13:47:33.200Z,27.98
2017-09-08T13:53:00.119Z,25.50
2017-09-08T13:55:31.574Z,25.15
2017-09-08T13:58:04.630Z,25.68
2017-09-08T14:00:36.654Z,25.83
2017-09-08T14:03:08.535Z,25.12
2017-09-08T14:05:40.151Z,25.17
2017-09-08T14:14:13.756Z,23.75
2017-09-08T14:22:52.773Z,23.05
2017-09-08T14:29:57.633Z,22.88
2017-09-08T14:38:29.073Z,22.57
2017-09-08T14:43:58.355Z,22.76
2017-09-08T14:52:22.677Z,22.89
2017-09-08T15:06:33.057Z,22.40
2017-09-08T15:09:17.094Z,22.24
2017-09-08T15:11:48.595Z,22.13
2017-09-08T15:14:19.877Z,22.26
2017-09-08T15:16:51.853Z,22.19
2017-09-08T15:19:23.228Z,22.17
2017-09-08T15:21:54.607Z,22.11
2017-09-08T15:24:26.470Z,21.99
2017-09-08T15:26:57.829Z,21.90
2017-09-08T15:29:30.599Z,21.85
2017-09-08T15:34:57.052Z,21.88
2017-09-08T15:37:30.117Z,21.82
2017-09-08T15:40:06.148Z,21.82
2017-09-08T15:45:14.976Z,21.92
2017-09-08T15:47:46.522Z,21.89
2017-09-08T15:50:17.836Z,21.94
2017-09-08T15:53:08.192Z,21.89
2017-09-08T15:55:39.408Z,21.86
2017-09-08T15:58:12.542Z,21.87
2017-09-08T16:00:47.896Z,21.82
2017-09-08T16:03:23.457Z,21.79
2017-09-08T16:05:54.994Z,21.76
2017-09-08T16:08:26.863Z,21.79
2017-09-08T16:11:00.250Z,21.76
2017-09-08T16:13:33.270Z,21.67
2017-09-08T16:16:08.141Z,21.64
2017-09-08T16:21:42.682Z,21.62
2017-09-08T16:24:14.218Z,21.61
2017-09-08T16:27:09.998Z,21.54
2017-09-08T16:29:41.489Z,21.51
2017-09-08T16:32:12.650Z,21.57
2017-09-08T16:34:45.736Z,21.51
2017-09-08T16:37:17.636Z,21.32
2017-09-08T16:39:49.898Z,21.19
2017-09-08T16:42:21.817Z,21.07
2017-09-08T16:44:53.564Z,21.10
2017-09-08T16:47:25.297Z,21.12
2017-09-08T16:49:56.665Z,21.11
2017-09-08T16:52:29.644Z,21.05
2017-09-08T16:55:01.093Z,20.93
2017-09-08T16:57:33.069Z,20.90
2017-09-08T17:00:05.242Z,20.81
2017-09-08T17:02:36.656Z,20.81
2017-09-08T17:05:08.091Z,20.89
2017-09-08T17:07:40.967Z,20.92
2017-09-08T17:19:03.515Z,20.65
2017-09-08T17:30:31.528Z,20.56
2017-09-08T17:33:46.150Z,20.52
2017-09-08T17:39:26.648Z,20.40
2017-09-08T17:44:53.384Z,20.30
2017-09-08T17:47:34.697Z,20.27
2017-09-08T17:57:56.603Z,20.11
2017-09-08T18:00:35.613Z,20.12
2017-09-08T18:03:22.857Z,20.15
2017-09-08T18:05:56.890Z,20.15
2017-09-08T18:11:39.260Z,20.10
2017-09-08T18:14:29.542Z,20.05
2017-09-08T18:23:09.071Z,20.01
2017-09-08T18:26:13.214Z,20.00
2017-09-08T18:37:36.205Z,20.00
2017-09-08T18:43:15.049Z,19.96
2017-09-08T18:48:46.218Z,19.92
2017-09-08T18:54:22.288Z,19.88
2017-09-08T19:06:09.549Z,19.72
2017-09-08T19:26:25.511Z,19.60
2017-09-08T19:29:00.034Z,19.55
2017-09-08T19:31:35.549Z,19.56
2017-09-08T19:34:14.686Z,19.50
2017-09-08T19:36:48.837Z,19.42
2017-09-08T19:39:23.959Z,19.42
2017-09-08T19:41:57.011Z,19.40
2017-09-08T19:44:46.125Z,19.32
2017-09-08T19:47:21.142Z,19.20
2017-09-08T19:49:57.674Z,19.15
2017-09-08T20:07:08.932Z,18.95
2017-09-08T20:27:16.338Z,18.83
2017-09-08T20:38:37.632Z,18.80
2017-09-08T20:55:48.411Z,18.68
2017-09-08T21:01:25.129Z,18.67
2017-09-08T21:09:50.073Z,18.67
2017-09-08T21:12:26.533Z,18.66
2017-09-08T21:18:09.917Z,18.59
2017-09-08T21:20:45.244Z,18.57
2017-09-08T21:26:24.426Z,18.54
2017-09-08T21:28:58.474Z,18.54
2017-09-08T21:34:17.260Z,18.52
2017-09-08T21:36:51.669Z,18.51
2017-09-08T21:39:26.240Z,18.51
2017-09-08T21:42:05.015Z,18.56
2017-09-08T21:44:36.735Z,18.60
2017-09-08T21:50:11.376Z,18.61
2017-09-08T21:52:46.165Z,18.63
2017-09-08T21:55:23.786Z,18.62
2017-09-08T21:57:59.739Z,18.61
2017-09-08T22:00:33.362Z,18.55
2017-09-08T22:16:00.126Z,18.37
2017-09-08T22:18:39.102Z,18.33
2017-09-08T22:21:16.975Z,18.32
2017-09-08T22:23:55.371Z,18.36
2017-09-08T22:26:42.766Z,18.32
2017-09-08T22:35:12.893Z,18.26
2017-09-08T22:37:56.792Z,18.25
2017-09-08T22:40:45.325Z,18.26
2017-09-08T22:43:23.600Z,18.27
2017-09-08T22:46:01.751Z,18.25
2017-09-08T22:48:38.105Z,18.25
2017-09-08T22:51:18.628Z,18.23
2017-09-08T22:53:56.475Z,18.20
2017-09-08T22:56:28.259Z,18.17
2017-09-08T22:59:13.462Z,18.16
2017-09-08T23:02:49.222Z,18.14
2017-09-08T23:05:21.233Z,18.11
2017-09-08T23:07:54.656Z,18.09
2017-09-08T23:13:39.776Z,18.08
2017-09-08T23:22:04.442Z,18.02
2017-09-08T23:24:35.874Z,18.04
2017-09-08T23:27:07.562Z,18.02
2017-09-08T23:29:39.116Z,18.02
2017-09-08T23:32:10.717Z,18.05
2017-09-08T23:34:42.457Z,18.03
2017-09-08T23:37:14.274Z,17.97
2017-09-08T23:39:51.025Z,17.96
2017-09-08T23:42:31.507Z,17.94
2017-09-08T23:45:03.558Z,17.89
2017-09-08T23:47:36.293Z,17.89
2017-09-08T23:50:09.119Z,17.91
2017-09-08T23:52:41.322Z,17.91
2017-09-08T23:55:12.798Z,17.91
2017-09-08T23:57:45.597Z,17.95
